Terminal Aerodrome Forecast
Issued by NWS Charleston, WV

Current Version | Previous Version | Graphics & Text | Print | Product List | Glossary On
Versions: 1 2 3 4 5 6 7 8 9 10 11 12 13 14 15 16 17 18 19 20 21 22 23 24 25 26 27
000
FTUS41 KRLX 052331
TAFBKW
TAF
KBKW 052331Z 0600/0624 VRB03KT P6SM BKN250
     FM060700 13010KT P6SM -RA OVC024
     FM061100 13014KT 4SM -RA OVC015 WS005/13035KT
     FM061700 14011KT 2SM -RA OVC009=

USA.gov is the U.S. government's official web portal to all federal, state and local government web resources and services.